sensor_id;sensor_type;location;lat;lon;timestamp;temperature;humidity
44166;DHT22;30476;53.468;9.826;2022-07-09T00:00:59;17.10;98.10
44166;DHT22;30476;53.468;9.826;2022-07-09T00:03:25;17.10;98.10
44166;DHT22;30476;53.468;9.826;2022-07-09T00:05:51;17.10;98.10
44166;DHT22;30476;53.468;9.826;2022-07-09T00:08:16;17.10;98.20
44166;DHT22;30476;53.468;9.826;2022-07-09T00:10:42;17.10;98.20
44166;DHT22;30476;53.468;9.826;2022-07-09T00:13:08;17.20;98.10
44166;DHT22;30476;53.468;9.826;2022-07-09T00:15:37;17.10;98.10
44166;DHT22;30476;53.468;9.826;2022-07-09T00:18:04;17.20;98.10
44166;DHT22;30476;53.468;9.826;2022-07-09T00:20:30;17.10;98.10
44166;DHT22;30476;53.468;9.826;2022-07-09T00:22:56;17.20;98.10
44166;DHT22;30476;53.468;9.826;2022-07-09T00:25:21;17.10;98.10
44166;DHT22;30476;53.468;9.826;2022-07-09T00:27:47;17.10;98.00
44166;DHT22;30476;53.468;9.826;2022-07-09T00:30:13;17.10;98.10
44166;DHT22;30476;53.468;9.826;2022-07-09T00:32:38;17.10;98.10
44166;DHT22;30476;53.468;9.826;2022-07-09T00:35:05;17.00;98.00
44166;DHT22;30476;53.468;9.826;2022-07-09T00:37:31;17.00;98.10
44166;DHT22;30476;53.468;9.826;2022-07-09T00:39:57;17.00;98.20
44166;DHT22;30476;53.468;9.826;2022-07-09T00:42:23;16.90;98.20
44166;DHT22;30476;53.468;9.826;2022-07-09T00:44:51;16.90;98.20
44166;DHT22;30476;53.468;9.826;2022-07-09T00:47:17;16.90;98.20
44166;DHT22;30476;53.468;9.826;2022-07-09T00:49:43;16.80;98.30
44166;DHT22;30476;53.468;9.826;2022-07-09T00:52:13;16.80;98.40
44166;DHT22;30476;53.468;9.826;2022-07-09T00:54:40;16.80;98.50
44166;DHT22;30476;53.468;9.826;2022-07-09T00:57:07;16.70;98.60
44166;DHT22;30476;53.468;9.826;2022-07-09T00:59:34;16.70;98.60
44166;DHT22;30476;53.468;9.826;2022-07-09T01:02:01;16.70;98.70
44166;DHT22;30476;53.468;9.826;2022-07-09T01:04:27;16.60;98.70
44166;DHT22;30476;53.468;9.826;2022-07-09T01:06:53;16.60;98.90
44166;DHT22;30476;53.468;9.826;2022-07-09T01:09:19;16.60;99.00
44166;DHT22;30476;53.468;9.826;2022-07-09T01:11:47;16.60;99.10
44166;DHT22;30476;53.468;9.826;2022-07-09T01:14:13;16.50;99.00
44166;DHT22;30476;53.468;9.826;2022-07-09T01:16:39;16.50;99.10
44166;DHT22;30476;53.468;9.826;2022-07-09T01:19:05;16.50;99.20
44166;DHT22;30476;53.468;9.826;2022-07-09T01:21:32;16.50;99.20
44166;DHT22;30476;53.468;9.826;2022-07-09T01:23:58;16.50;99.30
44166;DHT22;30476;53.468;9.826;2022-07-09T01:26:24;16.50;99.30
44166;DHT22;30476;53.468;9.826;2022-07-09T01:28:50;16.50;99.30
44166;DHT22;30476;53.468;9.826;2022-07-09T01:31:16;16.50;99.30
44166;DHT22;30476;53.468;9.826;2022-07-09T01:33:42;16.50;99.40
44166;DHT22;30476;53.468;9.826;2022-07-09T01:36:08;16.50;99.40
44166;DHT22;30476;53.468;9.826;2022-07-09T01:38:34;16.50;99.40
44166;DHT22;30476;53.468;9.826;2022-07-09T01:41:00;16.50;99.40
44166;DHT22;30476;53.468;9.826;2022-07-09T01:43:26;16.50;99.50
44166;DHT22;30476;53.468;9.826;2022-07-09T01:45:52;16.50;99.50
44166;DHT22;30476;53.468;9.826;2022-07-09T01:48:18;16.60;99.60
44166;DHT22;30476;53.468;9.826;2022-07-09T01:50:44;16.60;99.60
44166;DHT22;30476;53.468;9.826;2022-07-09T01:53:10;16.60;99.60
44166;DHT22;30476;53.468;9.826;2022-07-09T01:55:36;16.50;99.60
44166;DHT22;30476;53.468;9.826;2022-07-09T01:58:02;16.60;99.60
44166;DHT22;30476;53.468;9.826;2022-07-09T02:00:28;16.60;99.70
44166;DHT22;30476;53.468;9.826;2022-07-09T02:02:55;16.60;99.70
44166;DHT22;30476;53.468;9.826;2022-07-09T02:05:21;16.60;99.70
44166;DHT22;30476;53.468;9.826;2022-07-09T02:07:48;16.60;99.70
44166;DHT22;30476;53.468;9.826;2022-07-09T02:10:14;16.60;99.80
44166;DHT22;30476;53.468;9.826;2022-07-09T02:12:40;16.60;99.80
44166;DHT22;30476;53.468;9.826;2022-07-09T02:15:06;16.60;99.70
44166;DHT22;30476;53.468;9.826;2022-07-09T02:17:34;16.60;99.70
44166;DHT22;30476;53.468;9.826;2022-07-09T02:20:00;16.60;99.80
44166;DHT22;30476;53.468;9.826;2022-07-09T02:22:26;16.60;99.80
44166;DHT22;30476;53.468;9.826;2022-07-09T02:24:53;16.60;99.80
44166;DHT22;30476;53.468;9.826;2022-07-09T02:27:19;16.60;99.80
44166;DHT22;30476;53.468;9.826;2022-07-09T02:29:45;16.60;99.90
44166;DHT22;30476;53.468;9.826;2022-07-09T02:32:10;16.60;99.80
44166;DHT22;30476;53.468;9.826;2022-07-09T02:34:37;16.60;99.90
44166;DHT22;30476;53.468;9.826;2022-07-09T02:37:04;16.60;99.90
44166;DHT22;30476;53.468;9.826;2022-07-09T02:39:30;16.60;99.90
44166;DHT22;30476;53.468;9.826;2022-07-09T02:41:57;16.70;99.90
44166;DHT22;30476;53.468;9.826;2022-07-09T02:44:23;16.70;99.90
44166;DHT22;30476;53.468;9.826;2022-07-09T02:46:48;16.60;99.90
44166;DHT22;30476;53.468;9.826;2022-07-09T02:49:15;16.70;99.90
44166;DHT22;30476;53.468;9.826;2022-07-09T02:51:40;16.60;99.90
44166;DHT22;30476;53.468;9.826;2022-07-09T02:54:06;16.60;99.90
44166;DHT22;30476;53.468;9.826;2022-07-09T02:56:32;16.60;99.90
44166;DHT22;30476;53.468;9.826;2022-07-09T02:58:58;16.60;99.90
44166;DHT22;30476;53.468;9.826;2022-07-09T03:01:24;16.60;99.90
44166;DHT22;30476;53.468;9.826;2022-07-09T03:03:50;16.60;99.90
44166;DHT22;30476;53.468;9.826;2022-07-09T03:06:16;16.60;99.90
44166;DHT22;30476;53.468;9.826;2022-07-09T03:08:42;16.60;99.90
44166;DHT22;30476;53.468;9.826;2022-07-09T03:11:08;16.60;99.90
44166;DHT22;30476;53.468;9.826;2022-07-09T03:13:35;16.60;99.90
44166;DHT22;30476;53.468;9.826;2022-07-09T03:16:02;16.60;99.90
44166;DHT22;30476;53.468;9.826;2022-07-09T03:18:28;16.60;99.90
44166;DHT22;30476;53.468;9.826;2022-07-09T03:20:54;16.60;99.90
44166;DHT22;30476;53.468;9.826;2022-07-09T03:23:21;16.60;99.90
44166;DHT22;30476;53.468;9.826;2022-07-09T03:25:47;16.60;99.90
44166;DHT22;30476;53.468;9.826;2022-07-09T03:28:12;16.60;99.90
44166;DHT22;30476;53.468;9.826;2022-07-09T03:30:38;16.60;99.90
44166;DHT22;30476;53.468;9.826;2022-07-09T03:33:04;16.60;99.90
44166;DHT22;30476;53.468;9.826;2022-07-09T03:35:30;16.70;99.90
44166;DHT22;30476;53.468;9.826;2022-07-09T03:37:55;16.60;99.90
44166;DHT22;30476;53.468;9.826;2022-07-09T03:40:21;16.60;99.90
44166;DHT22;30476;53.468;9.826;2022-07-09T03:42:47;16.60;99.90
44166;DHT22;30476;53.468;9.826;2022-07-09T03:45:13;16.70;99.90
44166;DHT22;30476;53.468;9.826;2022-07-09T03:47:39;16.70;99.90
44166;DHT22;30476;53.468;9.826;2022-07-09T03:50:06;16.70;99.90
44166;DHT22;30476;53.468;9.826;2022-07-09T03:52:32;16.70;99.90
44166;DHT22;30476;53.468;9.826;2022-07-09T03:54:57;16.70;99.90
44166;DHT22;30476;53.468;9.826;2022-07-09T03:57:23;16.70;99.90
44166;DHT22;30476;53.468;9.826;2022-07-09T03:59:49;16.70;99.90
44166;DHT22;30476;53.468;9.826;2022-07-09T04:02:15;16.70;99.90
44166;DHT22;30476;53.468;9.826;2022-07-09T04:04:40;16.70;99.90
44166;DHT22;30476;53.468;9.826;2022-07-09T04:07:06;16.70;99.90
44166;DHT22;30476;53.468;9.826;2022-07-09T04:09:32;16.80;99.90
44166;DHT22;30476;53.468;9.826;2022-07-09T04:11:58;16.70;99.90
44166;DHT22;30476;53.468;9.826;2022-07-09T04:14:24;16.80;99.90
44166;DHT22;30476;53.468;9.826;2022-07-09T04:16:49;16.80;99.90
44166;DHT22;30476;53.468;9.826;2022-07-09T04:19:15;16.80;99.90
44166;DHT22;30476;53.468;9.826;2022-07-09T04:21:41;16.80;99.90
44166;DHT22;30476;53.468;9.826;2022-07-09T04:24:07;16.80;99.90
44166;DHT22;30476;53.468;9.826;2022-07-09T04:26:32;16.80;99.90
44166;DHT22;30476;53.468;9.826;2022-07-09T04:28:58;16.80;99.90
44166;DHT22;30476;53.468;9.826;2022-07-09T04:31:24;16.80;99.90
44166;DHT22;30476;53.468;9.826;2022-07-09T04:33:50;16.80;99.90
44166;DHT22;30476;53.468;9.826;2022-07-09T04:36:15;16.90;99.90
44166;DHT22;30476;53.468;9.826;2022-07-09T04:38:42;16.80;99.90
44166;DHT22;30476;53.468;9.826;2022-07-09T04:41:08;16.80;99.90
44166;DHT22;30476;53.468;9.826;2022-07-09T04:43:34;16.80;99.90
44166;DHT22;30476;53.468;9.826;2022-07-09T04:45:59;16.90;99.90
44166;DHT22;30476;53.468;9.826;2022-07-09T04:48:25;16.90;99.90
44166;DHT22;30476;53.468;9.826;2022-07-09T04:50:51;16.90;99.90
44166;DHT22;30476;53.468;9.826;2022-07-09T04:53:17;16.90;99.90
44166;DHT22;30476;53.468;9.826;2022-07-09T04:55:43;16.90;99.90
44166;DHT22;30476;53.468;9.826;2022-07-09T04:58:09;17.00;99.90
44166;DHT22;30476;53.468;9.826;2022-07-09T05:00:35;17.00;99.90
44166;DHT22;30476;53.468;9.826;2022-07-09T05:03:01;17.00;99.90
44166;DHT22;30476;53.468;9.826;2022-07-09T05:05:27;17.10;99.90
44166;DHT22;30476;53.468;9.826;2022-07-09T05:07:53;17.10;99.90
44166;DHT22;30476;53.468;9.826;2022-07-09T05:10:19;17.10;99.90
44166;DHT22;30476;53.468;9.826;2022-07-09T05:12:45;17.10;99.90
44166;DHT22;30476;53.468;9.826;2022-07-09T05:15:12;17.20;99.90
44166;DHT22;30476;53.468;9.826;2022-07-09T05:17:38;17.20;99.90
44166;DHT22;30476;53.468;9.826;2022-07-09T05:20:05;17.20;99.90
44166;DHT22;30476;53.468;9.826;2022-07-09T05:22:32;17.20;99.90
44166;DHT22;30476;53.468;9.826;2022-07-09T05:24:59;17.20;99.90
44166;DHT22;30476;53.468;9.826;2022-07-09T05:27:26;17.30;99.90
44166;DHT22;30476;53.468;9.826;2022-07-09T05:29:52;17.30;99.90
44166;DHT22;30476;53.468;9.826;2022-07-09T05:32:18;17.30;99.90
44166;DHT22;30476;53.468;9.826;2022-07-09T05:34:44;17.30;99.90
44166;DHT22;30476;53.468;9.826;2022-07-09T05:37:09;17.40;99.90
44166;DHT22;30476;53.468;9.826;2022-07-09T05:39:35;17.40;99.90
44166;DHT22;30476;53.468;9.826;2022-07-09T05:42:01;17.40;99.90
44166;DHT22;30476;53.468;9.826;2022-07-09T05:44:27;17.40;99.90
44166;DHT22;30476;53.468;9.826;2022-07-09T05:46:53;17.50;99.90
44166;DHT22;30476;53.468;9.826;2022-07-09T05:49:19;17.50;99.90
44166;DHT22;30476;53.468;9.826;2022-07-09T05:51:44;17.50;99.90
44166;DHT22;30476;53.468;9.826;2022-07-09T05:54:10;17.50;99.90
44166;DHT22;30476;53.468;9.826;2022-07-09T05:56:36;17.60;99.90
44166;DHT22;30476;53.468;9.826;2022-07-09T05:59:05;17.60;99.90
44166;DHT22;30476;53.468;9.826;2022-07-09T06:01:31;17.60;99.90
44166;DHT22;30476;53.468;9.826;2022-07-09T06:03:56;17.60;99.90
44166;DHT22;30476;53.468;9.826;2022-07-09T06:06:22;17.70;99.90
44166;DHT22;30476;53.468;9.826;2022-07-09T06:08:48;17.70;99.90
44166;DHT22;30476;53.468;9.826;2022-07-09T06:11:14;17.70;99.90
44166;DHT22;30476;53.468;9.826;2022-07-09T06:13:39;17.70;99.90
44166;DHT22;30476;53.468;9.826;2022-07-09T06:16:06;17.70;99.90
44166;DHT22;30476;53.468;9.826;2022-07-09T06:18:32;17.80;99.90
44166;DHT22;30476;53.468;9.826;2022-07-09T06:20:57;17.80;99.90
44166;DHT22;30476;53.468;9.826;2022-07-09T06:23:24;17.80;99.90
44166;DHT22;30476;53.468;9.826;2022-07-09T06:25:50;17.80;99.90
44166;DHT22;30476;53.468;9.826;2022-07-09T06:28:15;17.90;99.90
44166;DHT22;30476;53.468;9.826;2022-07-09T06:30:41;17.90;99.90
44166;DHT22;30476;53.468;9.826;2022-07-09T06:33:07;18.00;99.90
44166;DHT22;30476;53.468;9.826;2022-07-09T06:35:33;18.00;99.90
44166;DHT22;30476;53.468;9.826;2022-07-09T06:37:58;18.00;99.90
44166;DHT22;30476;53.468;9.826;2022-07-09T06:40:26;18.10;99.90
44166;DHT22;30476;53.468;9.826;2022-07-09T06:42:52;18.10;99.90
44166;DHT22;30476;53.468;9.826;2022-07-09T06:45:18;18.20;99.90
44166;DHT22;30476;53.468;9.826;2022-07-09T06:47:44;18.20;99.90
44166;DHT22;30476;53.468;9.826;2022-07-09T06:50:10;18.30;99.90
44166;DHT22;30476;53.468;9.826;2022-07-09T06:52:35;18.30;99.90
44166;DHT22;30476;53.468;9.826;2022-07-09T06:55:01;18.40;99.90
44166;DHT22;30476;53.468;9.826;2022-07-09T06:57:27;18.40;99.90
44166;DHT22;30476;53.468;9.826;2022-07-09T06:59:54;18.40;99.90
44166;DHT22;30476;53.468;9.826;2022-07-09T07:02:20;18.40;99.90
44166;DHT22;30476;53.468;9.826;2022-07-09T07:04:46;18.50;99.90
44166;DHT22;30476;53.468;9.826;2022-07-09T07:07:11;18.60;99.90
44166;DHT22;30476;53.468;9.826;2022-07-09T07:09:37;18.70;99.90
44166;DHT22;30476;53.468;9.826;2022-07-09T07:12:03;18.80;99.90
44166;DHT22;30476;53.468;9.826;2022-07-09T07:14:29;18.80;99.90
44166;DHT22;30476;53.468;9.826;2022-07-09T07:16:55;18.90;99.90
44166;DHT22;30476;53.468;9.826;2022-07-09T07:19:21;19.00;99.90
44166;DHT22;30476;53.468;9.826;2022-07-09T07:21:48;19.00;99.90
44166;DHT22;30476;53.468;9.826;2022-07-09T07:24:14;19.10;99.90
44166;DHT22;30476;53.468;9.826;2022-07-09T07:26:39;19.10;99.90
44166;DHT22;30476;53.468;9.826;2022-07-09T07:29:05;19.20;99.90
44166;DHT22;30476;53.468;9.826;2022-07-09T07:31:31;19.20;99.90
44166;DHT22;30476;53.468;9.826;2022-07-09T07:33:57;19.30;99.90
44166;DHT22;30476;53.468;9.826;2022-07-09T07:36:25;19.40;99.90
44166;DHT22;30476;53.468;9.826;2022-07-09T07:38:51;19.40;99.90
44166;DHT22;30476;53.468;9.826;2022-07-09T07:41:17;19.50;99.90
44166;DHT22;30476;53.468;9.826;2022-07-09T07:43:44;19.50;99.90
44166;DHT22;30476;53.468;9.826;2022-07-09T07:46:10;19.60;99.90
44166;DHT22;30476;53.468;9.826;2022-07-09T07:48:36;19.60;99.90
44166;DHT22;30476;53.468;9.826;2022-07-09T07:51:03;19.60;99.90
44166;DHT22;30476;53.468;9.826;2022-07-09T07:53:32;19.70;99.90
44166;DHT22;30476;53.468;9.826;2022-07-09T07:56:02;19.70;99.90
44166;DHT22;30476;53.468;9.826;2022-07-09T07:58:28;19.80;99.90
44166;DHT22;30476;53.468;9.826;2022-07-09T08:00:54;19.70;99.90
44166;DHT22;30476;53.468;9.826;2022-07-09T08:03:20;19.80;99.90
44166;DHT22;30476;53.468;9.826;2022-07-09T08:05:46;19.80;99.90
44166;DHT22;30476;53.468;9.826;2022-07-09T08:08:12;19.90;99.90
44166;DHT22;30476;53.468;9.826;2022-07-09T08:10:38;19.90;99.90
44166;DHT22;30476;53.468;9.826;2022-07-09T08:13:04;19.90;99.90
44166;DHT22;30476;53.468;9.826;2022-07-09T08:15:30;19.90;99.90
44166;DHT22;30476;53.468;9.826;2022-07-09T08:17:56;19.90;99.90
44166;DHT22;30476;53.468;9.826;2022-07-09T08:20:22;19.90;99.90
44166;DHT22;30476;53.468;9.826;2022-07-09T08:22:48;20.00;99.90
44166;DHT22;30476;53.468;9.826;2022-07-09T08:25:14;20.00;99.90
44166;DHT22;30476;53.468;9.826;2022-07-09T08:27:40;20.10;99.90
44166;DHT22;30476;53.468;9.826;2022-07-09T08:30:06;20.10;99.90
44166;DHT22;30476;53.468;9.826;2022-07-09T08:32:32;20.10;99.90
44166;DHT22;30476;53.468;9.826;2022-07-09T08:34:58;20.10;99.70
44166;DHT22;30476;53.468;9.826;2022-07-09T08:37:24;20.20;99.90
44166;DHT22;30476;53.468;9.826;2022-07-09T08:39:49;20.30;99.80
44166;DHT22;30476;53.468;9.826;2022-07-09T08:42:16;20.40;99.70
44166;DHT22;30476;53.468;9.826;2022-07-09T08:44:45;20.50;98.90
44166;DHT22;30476;53.468;9.826;2022-07-09T08:47:12;20.70;99.00
44166;DHT22;30476;53.468;9.826;2022-07-09T08:49:41;20.80;99.10
44166;DHT22;30476;53.468;9.826;2022-07-09T08:52:07;21.00;99.30
44166;DHT22;30476;53.468;9.826;2022-07-09T08:54:35;21.10;98.80
44166;DHT22;30476;53.468;9.826;2022-07-09T08:57:05;21.30;98.60
44166;DHT22;30476;53.468;9.826;2022-07-09T08:59:32;21.50;98.50
44166;DHT22;30476;53.468;9.826;2022-07-09T09:02:04;21.60;98.10
44166;DHT22;30476;53.468;9.826;2022-07-09T09:04:30;21.60;97.70
44166;DHT22;30476;53.468;9.826;2022-07-09T09:06:56;21.70;97.80
44166;DHT22;30476;53.468;9.826;2022-07-09T09:09:22;21.80;97.40
44166;DHT22;30476;53.468;9.826;2022-07-09T09:11:49;22.00;97.00
44166;DHT22;30476;53.468;9.826;2022-07-09T09:14:21;22.10;96.50
44166;DHT22;30476;53.468;9.826;2022-07-09T09:16:48;22.20;96.50
44166;DHT22;30476;53.468;9.826;2022-07-09T09:19:14;22.20;96.40
44166;DHT22;30476;53.468;9.826;2022-07-09T09:21:40;22.30;96.60
44166;DHT22;30476;53.468;9.826;2022-07-09T09:24:06;22.40;96.50
44166;DHT22;30476;53.468;9.826;2022-07-09T09:26:32;22.60;96.40
44166;DHT22;30476;53.468;9.826;2022-07-09T09:29:03;22.70;95.40
44166;DHT22;30476;53.468;9.826;2022-07-09T09:31:34;22.80;94.10
44166;DHT22;30476;53.468;9.826;2022-07-09T09:34:13;22.80;93.80
44166;DHT22;30476;53.468;9.826;2022-07-09T09:36:47;22.80;94.10
44166;DHT22;30476;53.468;9.826;2022-07-09T09:39:17;22.80;94.50
44166;DHT22;30476;53.468;9.826;2022-07-09T09:41:48;22.80;94.80
44166;DHT22;30476;53.468;9.826;2022-07-09T09:44:17;22.80;94.40
44166;DHT22;30476;53.468;9.826;2022-07-09T09:46:44;22.80;94.20
44166;DHT22;30476;53.468;9.826;2022-07-09T09:49:12;22.80;94.30
44166;DHT22;30476;53.468;9.826;2022-07-09T09:51:49;22.70;94.50
44166;DHT22;30476;53.468;9.826;2022-07-09T09:54:16;22.70;94.70
44166;DHT22;30476;53.468;9.826;2022-07-09T09:56:44;22.80;95.10
44166;DHT22;30476;53.468;9.826;2022-07-09T09:59:11;22.90;94.40
44166;DHT22;30476;53.468;9.826;2022-07-09T10:01:39;23.00;93.80
44166;DHT22;30476;53.468;9.826;2022-07-09T10:04:05;23.00;93.60
44166;DHT22;30476;53.468;9.826;2022-07-09T10:06:32;23.00;93.20
44166;DHT22;30476;53.468;9.826;2022-07-09T10:09:00;23.00;93.10
44166;DHT22;30476;53.468;9.826;2022-07-09T10:11:37;22.90;93.30
44166;DHT22;30476;53.468;9.826;2022-07-09T10:14:03;22.80;93.40
44166;DHT22;30476;53.468;9.826;2022-07-09T10:16:47;22.70;94.20
44166;DHT22;30476;53.468;9.826;2022-07-09T10:19:27;22.80;94.70
44166;DHT22;30476;53.468;9.826;2022-07-09T10:21:54;22.90;94.60
44166;DHT22;30476;53.468;9.826;2022-07-09T10:24:28;23.10;93.80
44166;DHT22;30476;53.468;9.826;2022-07-09T10:27:04;23.30;93.50
44166;DHT22;30476;53.468;9.826;2022-07-09T10:29:31;23.50;92.60
44166;DHT22;30476;53.468;9.826;2022-07-09T10:31:58;23.50;91.10
44166;DHT22;30476;53.468;9.826;2022-07-09T10:37:02;23.50;91.70
44166;DHT22;30476;53.468;9.826;2022-07-09T10:39:29;23.50;91.80
44166;DHT22;30476;53.468;9.826;2022-07-09T10:42:18;23.40;92.20
44166;DHT22;30476;53.468;9.826;2022-07-09T10:44:47;23.50;92.40
44166;DHT22;30476;53.468;9.826;2022-07-09T10:47:15;23.70;91.20
44166;DHT22;30476;53.468;9.826;2022-07-09T10:49:41;23.90;91.60
44166;DHT22;30476;53.468;9.826;2022-07-09T10:52:08;24.10;91.20
44166;DHT22;30476;53.468;9.826;2022-07-09T10:54:34;24.30;90.50
44166;DHT22;30476;53.468;9.826;2022-07-09T10:57:10;24.40;89.30
44166;DHT22;30476;53.468;9.826;2022-07-09T10:59:36;24.40;88.60
44166;DHT22;30476;53.468;9.826;2022-07-09T11:02:02;24.30;88.50
44166;DHT22;30476;53.468;9.826;2022-07-09T11:04:30;24.30;88.90
44166;DHT22;30476;53.468;9.826;2022-07-09T11:06:56;24.20;88.40
44166;DHT22;30476;53.468;9.826;2022-07-09T11:09:24;24.10;88.90
44166;DHT22;30476;53.468;9.826;2022-07-09T11:11:51;23.90;89.30
44166;DHT22;30476;53.468;9.826;2022-07-09T11:14:17;23.60;90.50
44166;DHT22;30476;53.468;9.826;2022-07-09T11:16:53;23.50;91.20
44166;DHT22;30476;53.468;9.826;2022-07-09T11:19:19;23.30;92.40
44166;DHT22;30476;53.468;9.826;2022-07-09T11:21:46;23.10;93.00
44166;DHT22;30476;53.468;9.826;2022-07-09T11:24:16;22.90;93.50
44166;DHT22;30476;53.468;9.826;2022-07-09T11:26:42;22.70;93.80
44166;DHT22;30476;53.468;9.826;2022-07-09T11:29:09;22.60;94.20
44166;DHT22;30476;53.468;9.826;2022-07-09T11:31:36;22.50;95.10
44166;DHT22;30476;53.468;9.826;2022-07-09T11:34:03;22.40;95.00
44166;DHT22;30476;53.468;9.826;2022-07-09T11:36:40;22.30;95.20
44166;DHT22;30476;53.468;9.826;2022-07-09T11:39:06;22.20;96.30
44166;DHT22;30476;53.468;9.826;2022-07-09T11:41:42;22.20;97.70
44166;DHT22;30476;53.468;9.826;2022-07-09T11:44:08;22.30;97.70
44166;DHT22;30476;53.468;9.826;2022-07-09T11:46:34;22.50;98.20
44166;DHT22;30476;53.468;9.826;2022-07-09T11:49:00;22.60;98.30
44166;DHT22;30476;53.468;9.826;2022-07-09T11:51:28;22.80;97.60
44166;DHT22;30476;53.468;9.826;2022-07-09T11:53:54;23.00;97.00
44166;DHT22;30476;53.468;9.826;2022-07-09T11:56:19;23.10;96.50
44166;DHT22;30476;53.468;9.826;2022-07-09T11:58:49;23.30;96.50
44166;DHT22;30476;53.468;9.826;2022-07-09T12:01:15;23.40;95.30
44166;DHT22;30476;53.468;9.826;2022-07-09T12:03:47;23.50;93.40
44166;DHT22;30476;53.468;9.826;2022-07-09T12:06:13;23.50;92.30
44166;DHT22;30476;53.468;9.826;2022-07-09T12:08:40;23.50;91.80
44166;DHT22;30476;53.468;9.826;2022-07-09T12:11:06;23.50;91.10
44166;DHT22;30476;53.468;9.826;2022-07-09T12:13:31;23.40;91.10
44166;DHT22;30476;53.468;9.826;2022-07-09T12:15:57;23.40;91.90
44166;DHT22;30476;53.468;9.826;2022-07-09T12:18:23;23.40;91.90
44166;DHT22;30476;53.468;9.826;2022-07-09T12:20:49;23.50;91.70
44166;DHT22;30476;53.468;9.826;2022-07-09T12:23:14;23.60;91.10
44166;DHT22;30476;53.468;9.826;2022-07-09T12:25:41;23.50;90.30
44166;DHT22;30476;53.468;9.826;2022-07-09T12:28:07;23.30;90.30
44166;DHT22;30476;53.468;9.826;2022-07-09T12:30:32;23.30;91.20
44166;DHT22;30476;53.468;9.826;2022-07-09T12:32:58;23.30;91.30
44166;DHT22;30476;53.468;9.826;2022-07-09T12:35:25;23.50;91.90
44166;DHT22;30476;53.468;9.826;2022-07-09T12:37:52;23.60;90.20
44166;DHT22;30476;53.468;9.826;2022-07-09T12:40:18;23.90;90.20
44166;DHT22;30476;53.468;9.826;2022-07-09T12:42:44;24.10;89.90
44166;DHT22;30476;53.468;9.826;2022-07-09T12:45:10;24.30;88.70
44166;DHT22;30476;53.468;9.826;2022-07-09T12:47:36;24.40;87.00
44166;DHT22;30476;53.468;9.826;2022-07-09T12:50:02;24.40;86.50
44166;DHT22;30476;53.468;9.826;2022-07-09T12:52:33;24.30;85.30
44166;DHT22;30476;53.468;9.826;2022-07-09T12:55:02;24.10;85.10
44166;DHT22;30476;53.468;9.826;2022-07-09T12:57:29;23.90;85.80
44166;DHT22;30476;53.468;9.826;2022-07-09T12:59:55;23.90;85.50
44166;DHT22;30476;53.468;9.826;2022-07-09T13:02:21;23.90;86.00
44166;DHT22;30476;53.468;9.826;2022-07-09T13:04:47;24.00;83.60
44166;DHT22;30476;53.468;9.826;2022-07-09T13:07:12;24.20;82.80
44166;DHT22;30476;53.468;9.826;2022-07-09T13:09:39;24.20;77.80
44166;DHT22;30476;53.468;9.826;2022-07-09T13:12:05;24.00;79.00
44166;DHT22;30476;53.468;9.826;2022-07-09T13:14:31;24.00;79.00
44166;DHT22;30476;53.468;9.826;2022-07-09T13:16:58;23.90;80.40
44166;DHT22;30476;53.468;9.826;2022-07-09T13:19:24;23.90;81.40
44166;DHT22;30476;53.468;9.826;2022-07-09T13:21:50;24.10;80.30
44166;DHT22;30476;53.468;9.826;2022-07-09T13:24:16;24.20;77.40
44166;DHT22;30476;53.468;9.826;2022-07-09T13:26:42;24.20;74.50
44166;DHT22;30476;53.468;9.826;2022-07-09T13:29:08;24.20;76.90
44166;DHT22;30476;53.468;9.826;2022-07-09T13:31:33;24.10;74.10
44166;DHT22;30476;53.468;9.826;2022-07-09T13:33:59;24.10;74.60
44166;DHT22;30476;53.468;9.826;2022-07-09T13:36:25;24.20;74.70
44166;DHT22;30476;53.468;9.826;2022-07-09T13:38:51;24.10;74.10
44166;DHT22;30476;53.468;9.826;2022-07-09T13:41:17;24.10;73.70
44166;DHT22;30476;53.468;9.826;2022-07-09T13:43:44;24.10;73.50
44166;DHT22;30476;53.468;9.826;2022-07-09T13:46:11;23.90;73.70
44166;DHT22;30476;53.468;9.826;2022-07-09T13:48:37;23.90;74.70
44166;DHT22;30476;53.468;9.826;2022-07-09T13:51:03;23.90;74.80
44166;DHT22;30476;53.468;9.826;2022-07-09T13:53:29;23.90;76.10
44166;DHT22;30476;53.468;9.826;2022-07-09T13:55:55;23.80;72.40
44166;DHT22;30476;53.468;9.826;2022-07-09T13:58:21;23.60;73.50
44166;DHT22;30476;53.468;9.826;2022-07-09T14:00:47;23.40;75.30
44166;DHT22;30476;53.468;9.826;2022-07-09T14:03:13;23.30;75.30
44166;DHT22;30476;53.468;9.826;2022-07-09T14:05:38;23.20;76.50
44166;DHT22;30476;53.468;9.826;2022-07-09T14:08:05;23.00;76.00
44166;DHT22;30476;53.468;9.826;2022-07-09T14:10:32;22.90;73.80
44166;DHT22;30476;53.468;9.826;2022-07-09T14:12:58;22.70;74.90
44166;DHT22;30476;53.468;9.826;2022-07-09T14:15:24;22.60;74.50
44166;DHT22;30476;53.468;9.826;2022-07-09T14:17:50;22.50;76.20
44166;DHT22;30476;53.468;9.826;2022-07-09T14:20:16;22.40;76.70
44166;DHT22;30476;53.468;9.826;2022-07-09T14:22:42;22.30;77.50
44166;DHT22;30476;53.468;9.826;2022-07-09T14:25:08;22.10;78.20
44166;DHT22;30476;53.468;9.826;2022-07-09T14:27:34;22.00;79.00
44166;DHT22;30476;53.468;9.826;2022-07-09T14:29:59;21.90;78.20
44166;DHT22;30476;53.468;9.826;2022-07-09T14:32:25;21.80;77.60
44166;DHT22;30476;53.468;9.826;2022-07-09T14:34:51;21.80;78.20
44166;DHT22;30476;53.468;9.826;2022-07-09T14:37:17;21.70;78.10
44166;DHT22;30476;53.468;9.826;2022-07-09T14:39:42;21.80;78.80
44166;DHT22;30476;53.468;9.826;2022-07-09T14:42:08;21.80;78.60
44166;DHT22;30476;53.468;9.826;2022-07-09T14:44:34;21.80;80.00
44166;DHT22;30476;53.468;9.826;2022-07-09T14:47:00;21.70;78.20
44166;DHT22;30476;53.468;9.826;2022-07-09T14:49:26;21.80;79.20
44166;DHT22;30476;53.468;9.826;2022-07-09T14:51:53;21.80;78.80
44166;DHT22;30476;53.468;9.826;2022-07-09T14:54:19;21.70;78.60
44166;DHT22;30476;53.468;9.826;2022-07-09T14:56:45;21.70;77.80
44166;DHT22;30476;53.468;9.826;2022-07-09T14:59:11;21.70;76.90
44166;DHT22;30476;53.468;9.826;2022-07-09T15:01:38;21.70;77.10
44166;DHT22;30476;53.468;9.826;2022-07-09T15:04:04;21.70;77.10
44166;DHT22;30476;53.468;9.826;2022-07-09T15:06:30;21.60;77.10
44166;DHT22;30476;53.468;9.826;2022-07-09T15:08:56;21.60;77.10
44166;DHT22;30476;53.468;9.826;2022-07-09T15:11:22;21.50;75.30
44166;DHT22;30476;53.468;9.826;2022-07-09T15:13:48;21.50;74.20
44166;DHT22;30476;53.468;9.826;2022-07-09T15:16:13;21.40;73.00
44166;DHT22;30476;53.468;9.826;2022-07-09T15:18:39;21.40;73.00
44166;DHT22;30476;53.468;9.826;2022-07-09T15:21:05;21.30;72.70
44166;DHT22;30476;53.468;9.826;2022-07-09T15:23:31;21.20;72.70
44166;DHT22;30476;53.468;9.826;2022-07-09T15:25:57;21.10;72.90
44166;DHT22;30476;53.468;9.826;2022-07-09T15:28:23;21.10;72.40